sensor_id;sensor_type;location;lat;lon;timestamp;P1;durP1;ratioP1;P2;durP2;ratioP2
74371;SDS011;62885;51.374;6.170;2023-05-24T00:02:06;8.82;;;1.45;;
74371;SDS011;62885;51.374;6.170;2023-05-24T00:04:31;6.75;;;1.85;;
74371;SDS011;62885;51.374;6.170;2023-05-24T00:06:58;5.30;;;1.73;;
74371;SDS011;62885;51.374;6.170;2023-05-24T00:09:27;9.52;;;1.73;;
74371;SDS011;62885;51.374;6.170;2023-05-24T00:11:55;9.00;;;1.80;;
74371;SDS011;62885;51.374;6.170;2023-05-24T00:14:21;8.00;;;2.03;;
74371;SDS011;62885;51.374;6.170;2023-05-24T00:16:46;8.35;;;1.60;;
74371;SDS011;62885;51.374;6.170;2023-05-24T00:19:12;8.88;;;1.90;;
74371;SDS011;62885;51.374;6.170;2023-05-24T00:21:42;9.95;;;2.30;;
74371;SDS011;62885;51.374;6.170;2023-05-24T00:24:08;9.90;;;2.00;;
74371;SDS011;62885;51.374;6.170;2023-05-24T00:26:35;12.23;;;1.77;;
74371;SDS011;62885;51.374;6.170;2023-05-24T00:29:01;8.10;;;1.75;;
74371;SDS011;62885;51.374;6.170;2023-05-24T00:31:26;6.05;;;1.70;;
74371;SDS011;62885;51.374;6.170;2023-05-24T00:33:51;6.25;;;1.75;;
74371;SDS011;62885;51.374;6.170;2023-05-24T00:36:17;8.85;;;1.50;;
74371;SDS011;62885;51.374;6.170;2023-05-24T00:38:42;6.82;;;1.48;;
74371;SDS011;62885;51.374;6.170;2023-05-24T00:41:07;6.70;;;1.55;;
74371;SDS011;62885;51.374;6.170;2023-05-24T00:43:33;11.52;;;2.42;;
74371;SDS011;62885;51.374;6.170;2023-05-24T00:46:11;8.60;;;1.63;;
74371;SDS011;62885;51.374;6.170;2023-05-24T00:48:46;6.22;;;1.67;;
74371;SDS011;62885;51.374;6.170;2023-05-24T00:51:15;9.27;;;2.88;;
74371;SDS011;62885;51.374;6.170;2023-05-24T00:53:41;7.97;;;1.63;;
74371;SDS011;62885;51.374;6.170;2023-05-24T00:56:08;9.85;;;2.03;;
74371;SDS011;62885;51.374;6.170;2023-05-24T00:58:36;8.18;;;1.92;;
74371;SDS011;62885;51.374;6.170;2023-05-24T01:01:02;10.77;;;1.90;;
74371;SDS011;62885;51.374;6.170;2023-05-24T01:03:28;10.98;;;1.95;;
74371;SDS011;62885;51.374;6.170;2023-05-24T01:05:54;10.07;;;1.75;;
74371;SDS011;62885;51.374;6.170;2023-05-24T01:14:28;7.88;;;2.50;;
74371;SDS011;62885;51.374;6.170;2023-05-24T01:17:11;5.28;;;1.67;;
74371;SDS011;62885;51.374;6.170;2023-05-24T01:22:43;9.05;;;2.05;;
74371;SDS011;62885;51.374;6.170;2023-05-24T01:28:27;8.98;;;1.80;;
74371;SDS011;62885;51.374;6.170;2023-05-24T01:30:55;6.35;;;2.25;;
74371;SDS011;62885;51.374;6.170;2023-05-24T01:33:21;5.22;;;2.10;;
74371;SDS011;62885;51.374;6.170;2023-05-24T01:35:47;4.72;;;1.50;;
74371;SDS011;62885;51.374;6.170;2023-05-24T01:38:12;10.13;;;1.80;;
74371;SDS011;62885;51.374;6.170;2023-05-24T01:40:39;5.68;;;1.42;;
74371;SDS011;62885;51.374;6.170;2023-05-24T01:46:27;7.13;;;1.98;;
74371;SDS011;62885;51.374;6.170;2023-05-24T01:51:11;4.72;;;1.80;;
74371;SDS011;62885;51.374;6.170;2023-05-24T01:53:43;13.32;;;2.72;;
74371;SDS011;62885;51.374;6.170;2023-05-24T01:56:13;4.40;;;1.50;;
74371;SDS011;62885;51.374;6.170;2023-05-24T01:58:42;8.88;;;1.88;;
74371;SDS011;62885;51.374;6.170;2023-05-24T02:01:09;6.70;;;1.75;;
74371;SDS011;62885;51.374;6.170;2023-05-24T02:03:35;8.70;;;1.92;;
74371;SDS011;62885;51.374;6.170;2023-05-24T02:06:04;6.68;;;1.65;;
74371;SDS011;62885;51.374;6.170;2023-05-24T02:08:30;7.43;;;2.10;;
74371;SDS011;62885;51.374;6.170;2023-05-24T02:10:55;5.40;;;1.70;;
74371;SDS011;62885;51.374;6.170;2023-05-24T02:13:20;9.73;;;1.88;;
74371;SDS011;62885;51.374;6.170;2023-05-24T02:15:46;9.68;;;1.73;;
74371;SDS011;62885;51.374;6.170;2023-05-24T02:18:12;11.75;;;2.05;;
74371;SDS011;62885;51.374;6.170;2023-05-24T02:20:38;7.88;;;1.88;;
74371;SDS011;62885;51.374;6.170;2023-05-24T02:23:03;11.88;;;2.03;;
74371;SDS011;62885;51.374;6.170;2023-05-24T02:25:29;13.18;;;2.17;;
74371;SDS011;62885;51.374;6.170;2023-05-24T02:27:55;9.10;;;1.98;;
74371;SDS011;62885;51.374;6.170;2023-05-24T02:30:21;9.30;;;2.15;;
74371;SDS011;62885;51.374;6.170;2023-05-24T02:32:47;8.65;;;2.17;;
74371;SDS011;62885;51.374;6.170;2023-05-24T02:35:12;9.98;;;2.50;;
74371;SDS011;62885;51.374;6.170;2023-05-24T02:37:37;8.18;;;2.13;;
74371;SDS011;62885;51.374;6.170;2023-05-24T02:40:03;11.90;;;2.85;;
74371;SDS011;62885;51.374;6.170;2023-05-24T02:42:29;6.72;;;1.95;;
74371;SDS011;62885;51.374;6.170;2023-05-24T02:44:54;7.97;;;2.17;;
74371;SDS011;62885;51.374;6.170;2023-05-24T02:47:20;6.38;;;2.22;;
74371;SDS011;62885;51.374;6.170;2023-05-24T02:49:45;6.78;;;1.90;;
74371;SDS011;62885;51.374;6.170;2023-05-24T02:52:10;5.90;;;2.10;;
74371;SDS011;62885;51.374;6.170;2023-05-24T02:54:37;10.23;;;2.10;;
74371;SDS011;62885;51.374;6.170;2023-05-24T02:57:03;8.50;;;2.22;;
74371;SDS011;62885;51.374;6.170;2023-05-24T02:59:30;7.40;;;1.95;;
74371;SDS011;62885;51.374;6.170;2023-05-24T03:01:56;9.00;;;2.47;;
74371;SDS011;62885;51.374;6.170;2023-05-24T03:04:21;7.20;;;2.30;;
74371;SDS011;62885;51.374;6.170;2023-05-24T03:06:46;5.50;;;1.90;;
74371;SDS011;62885;51.374;6.170;2023-05-24T03:09:12;6.90;;;2.30;;
74371;SDS011;62885;51.374;6.170;2023-05-24T03:11:37;7.78;;;2.47;;
74371;SDS011;62885;51.374;6.170;2023-05-24T03:14:03;7.85;;;2.65;;
74371;SDS011;62885;51.374;6.170;2023-05-24T03:16:30;9.68;;;2.05;;
74371;SDS011;62885;51.374;6.170;2023-05-24T03:18:55;12.02;;;2.53;;
74371;SDS011;62885;51.374;6.170;2023-05-24T03:21:21;7.63;;;2.03;;
74371;SDS011;62885;51.374;6.170;2023-05-24T03:23:47;6.50;;;2.33;;
74371;SDS011;62885;51.374;6.170;2023-05-24T03:26:13;10.77;;;3.20;;
74371;SDS011;62885;51.374;6.170;2023-05-24T03:28:39;11.25;;;2.85;;
74371;SDS011;62885;51.374;6.170;2023-05-24T03:31:04;7.07;;;2.35;;
74371;SDS011;62885;51.374;6.170;2023-05-24T03:33:30;6.82;;;2.10;;
74371;SDS011;62885;51.374;6.170;2023-05-24T03:35:56;10.75;;;2.80;;
74371;SDS011;62885;51.374;6.170;2023-05-24T03:38:21;12.30;;;2.95;;
74371;SDS011;62885;51.374;6.170;2023-05-24T03:40:47;13.65;;;2.88;;
74371;SDS011;62885;51.374;6.170;2023-05-24T03:43:12;8.70;;;2.78;;
74371;SDS011;62885;51.374;6.170;2023-05-24T03:45:37;12.25;;;3.17;;
74371;SDS011;62885;51.374;6.170;2023-05-24T03:48:03;7.22;;;2.28;;
74371;SDS011;62885;51.374;6.170;2023-05-24T03:50:28;12.85;;;2.63;;
74371;SDS011;62885;51.374;6.170;2023-05-24T03:52:53;9.30;;;2.00;;
74371;SDS011;62885;51.374;6.170;2023-05-24T03:55:19;11.93;;;2.78;;
74371;SDS011;62885;51.374;6.170;2023-05-24T03:57:45;8.20;;;2.33;;
74371;SDS011;62885;51.374;6.170;2023-05-24T04:00:11;9.30;;;2.35;;
74371;SDS011;62885;51.374;6.170;2023-05-24T04:02:36;8.75;;;2.58;;
74371;SDS011;62885;51.374;6.170;2023-05-24T04:05:03;8.45;;;2.83;;
74371;SDS011;62885;51.374;6.170;2023-05-24T04:07:29;9.73;;;3.45;;
74371;SDS011;62885;51.374;6.170;2023-05-24T04:09:58;17.70;;;3.33;;
74371;SDS011;62885;51.374;6.170;2023-05-24T04:12:23;12.05;;;2.67;;
74371;SDS011;62885;51.374;6.170;2023-05-24T04:14:49;10.55;;;2.70;;
74371;SDS011;62885;51.374;6.170;2023-05-24T04:17:15;12.43;;;3.17;;
74371;SDS011;62885;51.374;6.170;2023-05-24T04:19:41;12.98;;;2.95;;
74371;SDS011;62885;51.374;6.170;2023-05-24T04:22:06;12.60;;;2.97;;
74371;SDS011;62885;51.374;6.170;2023-05-24T04:24:31;7.45;;;2.65;;
74371;SDS011;62885;51.374;6.170;2023-05-24T04:26:57;7.78;;;2.88;;
74371;SDS011;62885;51.374;6.170;2023-05-24T04:29:22;6.50;;;2.55;;
74371;SDS011;62885;51.374;6.170;2023-05-24T04:31:50;13.30;;;2.83;;
74371;SDS011;62885;51.374;6.170;2023-05-24T04:34:16;10.70;;;3.45;;
74371;SDS011;62885;51.374;6.170;2023-05-24T04:36:41;15.48;;;4.03;;
74371;SDS011;62885;51.374;6.170;2023-05-24T04:39:07;12.48;;;2.92;;
74371;SDS011;62885;51.374;6.170;2023-05-24T04:41:32;9.20;;;3.00;;
74371;SDS011;62885;51.374;6.170;2023-05-24T04:43:59;7.25;;;2.53;;
74371;SDS011;62885;51.374;6.170;2023-05-24T04:46:25;14.95;;;3.65;;
74371;SDS011;62885;51.374;6.170;2023-05-24T04:48:53;11.77;;;3.20;;
74371;SDS011;62885;51.374;6.170;2023-05-24T04:51:19;9.88;;;3.05;;
74371;SDS011;62885;51.374;6.170;2023-05-24T04:53:45;10.13;;;2.67;;
74371;SDS011;62885;51.374;6.170;2023-05-24T04:56:11;9.32;;;3.25;;
74371;SDS011;62885;51.374;6.170;2023-05-24T04:58:39;11.32;;;3.30;;
74371;SDS011;62885;51.374;6.170;2023-05-24T05:01:04;13.52;;;3.38;;
74371;SDS011;62885;51.374;6.170;2023-05-24T05:05:55;12.82;;;3.00;;
74371;SDS011;62885;51.374;6.170;2023-05-24T05:08:23;11.88;;;3.20;;
74371;SDS011;62885;51.374;6.170;2023-05-24T05:10:49;12.40;;;3.58;;
74371;SDS011;62885;51.374;6.170;2023-05-24T05:13:14;8.93;;;3.58;;
74371;SDS011;62885;51.374;6.170;2023-05-24T05:15:39;7.43;;;3.08;;
74371;SDS011;62885;51.374;6.170;2023-05-24T05:18:05;9.50;;;3.15;;
74371;SDS011;62885;51.374;6.170;2023-05-24T05:20:30;11.70;;;3.80;;
74371;SDS011;62885;51.374;6.170;2023-05-24T05:22:55;12.02;;;2.97;;
74371;SDS011;62885;51.374;6.170;2023-05-24T05:25:21;13.02;;;3.25;;
74371;SDS011;62885;51.374;6.170;2023-05-24T05:27:46;10.65;;;3.47;;
74371;SDS011;62885;51.374;6.170;2023-05-24T05:30:11;14.85;;;3.40;;
74371;SDS011;62885;51.374;6.170;2023-05-24T05:32:37;11.80;;;3.63;;
74371;SDS011;62885;51.374;6.170;2023-05-24T05:35:03;9.50;;;3.30;;
74371;SDS011;62885;51.374;6.170;2023-05-24T05:37:29;12.00;;;3.20;;
74371;SDS011;62885;51.374;6.170;2023-05-24T05:39:55;14.38;;;3.63;;
74371;SDS011;62885;51.374;6.170;2023-05-24T05:42:20;15.15;;;3.75;;
74371;SDS011;62885;51.374;6.170;2023-05-24T05:44:46;13.38;;;2.83;;
74371;SDS011;62885;51.374;6.170;2023-05-24T05:47:11;8.77;;;3.13;;
74371;SDS011;62885;51.374;6.170;2023-05-24T05:49:36;15.05;;;3.75;;
74371;SDS011;62885;51.374;6.170;2023-05-24T05:52:03;9.05;;;2.95;;
74371;SDS011;62885;51.374;6.170;2023-05-24T05:54:29;12.23;;;3.30;;
74371;SDS011;62885;51.374;6.170;2023-05-24T05:56:55;11.65;;;3.10;;
74371;SDS011;62885;51.374;6.170;2023-05-24T05:59:21;10.98;;;3.22;;
74371;SDS011;62885;51.374;6.170;2023-05-24T06:01:46;11.02;;;3.38;;
74371;SDS011;62885;51.374;6.170;2023-05-24T06:04:13;11.10;;;3.33;;
74371;SDS011;62885;51.374;6.170;2023-05-24T06:06:41;13.40;;;4.18;;
74371;SDS011;62885;51.374;6.170;2023-05-24T06:09:08;10.65;;;3.60;;
74371;SDS011;62885;51.374;6.170;2023-05-24T06:11:33;16.30;;;3.10;;
74371;SDS011;62885;51.374;6.170;2023-05-24T06:13:58;14.98;;;3.47;;
74371;SDS011;62885;51.374;6.170;2023-05-24T06:16:24;18.35;;;8.25;;
74371;SDS011;62885;51.374;6.170;2023-05-24T06:18:49;14.88;;;5.95;;
74371;SDS011;62885;51.374;6.170;2023-05-24T06:21:15;14.00;;;4.47;;
74371;SDS011;62885;51.374;6.170;2023-05-24T06:23:41;10.98;;;3.58;;
74371;SDS011;62885;51.374;6.170;2023-05-24T06:26:07;11.52;;;3.60;;
74371;SDS011;62885;51.374;6.170;2023-05-24T06:28:33;16.00;;;3.92;;
74371;SDS011;62885;51.374;6.170;2023-05-24T06:31:00;15.57;;;4.00;;
74371;SDS011;62885;51.374;6.170;2023-05-24T06:33:25;11.05;;;4.07;;
74371;SDS011;62885;51.374;6.170;2023-05-24T06:35:51;12.73;;;3.33;;
74371;SDS011;62885;51.374;6.170;2023-05-24T06:38:17;10.00;;;3.95;;
74371;SDS011;62885;51.374;6.170;2023-05-24T06:40:44;12.43;;;4.25;;
74371;SDS011;62885;51.374;6.170;2023-05-24T06:43:10;13.30;;;3.60;;
74371;SDS011;62885;51.374;6.170;2023-05-24T06:45:35;16.45;;;3.53;;
74371;SDS011;62885;51.374;6.170;2023-05-24T06:48:01;14.70;;;3.50;;
74371;SDS011;62885;51.374;6.170;2023-05-24T06:50:27;9.52;;;3.15;;
74371;SDS011;62885;51.374;6.170;2023-05-24T06:52:52;13.50;;;3.53;;
74371;SDS011;62885;51.374;6.170;2023-05-24T06:55:18;14.68;;;4.20;;
74371;SDS011;62885;51.374;6.170;2023-05-24T06:57:43;14.63;;;3.40;;
74371;SDS011;62885;51.374;6.170;2023-05-24T07:00:09;12.38;;;3.80;;
74371;SDS011;62885;51.374;6.170;2023-05-24T07:02:36;14.18;;;3.38;;
74371;SDS011;62885;51.374;6.170;2023-05-24T07:05:02;12.00;;;4.40;;
74371;SDS011;62885;51.374;6.170;2023-05-24T07:07:29;14.32;;;4.30;;
74371;SDS011;62885;51.374;6.170;2023-05-24T07:09:54;9.88;;;4.43;;
74371;SDS011;62885;51.374;6.170;2023-05-24T07:12:19;15.77;;;3.75;;
74371;SDS011;62885;51.374;6.170;2023-05-24T07:14:45;11.63;;;3.72;;
74371;SDS011;62885;51.374;6.170;2023-05-24T07:17:10;11.40;;;4.20;;
74371;SDS011;62885;51.374;6.170;2023-05-24T07:19:36;13.52;;;3.90;;
74371;SDS011;62885;51.374;6.170;2023-05-24T07:22:01;13.25;;;3.65;;
74371;SDS011;62885;51.374;6.170;2023-05-24T07:24:27;10.77;;;3.53;;
74371;SDS011;62885;51.374;6.170;2023-05-24T07:26:52;11.10;;;4.38;;
74371;SDS011;62885;51.374;6.170;2023-05-24T07:29:18;16.67;;;4.57;;
74371;SDS011;62885;51.374;6.170;2023-05-24T07:31:43;12.57;;;3.95;;
74371;SDS011;62885;51.374;6.170;2023-05-24T07:34:09;10.63;;;4.05;;
74371;SDS011;62885;51.374;6.170;2023-05-24T07:36:34;13.32;;;4.57;;
74371;SDS011;62885;51.374;6.170;2023-05-24T07:39:00;11.20;;;3.83;;
74371;SDS011;62885;51.374;6.170;2023-05-24T07:41:28;13.10;;;3.60;;
74371;SDS011;62885;51.374;6.170;2023-05-24T07:43:54;13.32;;;3.33;;
74371;SDS011;62885;51.374;6.170;2023-05-24T07:46:19;11.32;;;3.92;;
74371;SDS011;62885;51.374;6.170;2023-05-24T07:48:45;14.82;;;3.92;;
74371;SDS011;62885;51.374;6.170;2023-05-24T07:51:10;10.80;;;3.42;;
74371;SDS011;62885;51.374;6.170;2023-05-24T07:53:36;13.32;;;4.70;;
74371;SDS011;62885;51.374;6.170;2023-05-24T07:56:01;11.10;;;3.30;;
74371;SDS011;62885;51.374;6.170;2023-05-24T07:58:27;11.65;;;3.72;;
74371;SDS011;62885;51.374;6.170;2023-05-24T08:00:53;9.18;;;2.92;;
74371;SDS011;62885;51.374;6.170;2023-05-24T08:03:19;7.43;;;2.97;;
74371;SDS011;62885;51.374;6.170;2023-05-24T08:05:44;12.30;;;3.45;;
74371;SDS011;62885;51.374;6.170;2023-05-24T08:08:10;11.63;;;3.50;;
74371;SDS011;62885;51.374;6.170;2023-05-24T08:10:36;11.45;;;3.05;;
74371;SDS011;62885;51.374;6.170;2023-05-24T08:13:01;7.63;;;3.00;;
74371;SDS011;62885;51.374;6.170;2023-05-24T08:15:28;11.38;;;3.35;;
74371;SDS011;62885;51.374;6.170;2023-05-24T08:17:54;13.95;;;3.90;;
74371;SDS011;62885;51.374;6.170;2023-05-24T08:20:20;11.82;;;2.85;;
74371;SDS011;62885;51.374;6.170;2023-05-24T08:22:46;8.57;;;3.30;;
74371;SDS011;62885;51.374;6.170;2023-05-24T08:25:14;14.68;;;3.95;;
74371;SDS011;62885;51.374;6.170;2023-05-24T08:27:40;11.88;;;3.47;;
74371;SDS011;62885;51.374;6.170;2023-05-24T08:30:06;13.25;;;3.05;;
74371;SDS011;62885;51.374;6.170;2023-05-24T08:32:32;11.20;;;2.72;;
74371;SDS011;62885;51.374;6.170;2023-05-24T08:34:57;11.48;;;2.95;;
74371;SDS011;62885;51.374;6.170;2023-05-24T08:37:23;10.88;;;3.45;;
74371;SDS011;62885;51.374;6.170;2023-05-24T08:39:48;11.70;;;3.13;;
74371;SDS011;62885;51.374;6.170;2023-05-24T08:42:14;9.98;;;3.22;;
74371;SDS011;62885;51.374;6.170;2023-05-24T08:44:41;9.85;;;2.42;;
74371;SDS011;62885;51.374;6.170;2023-05-24T08:47:14;12.88;;;3.90;;
74371;SDS011;62885;51.374;6.170;2023-05-24T08:49:40;8.63;;;3.55;;
74371;SDS011;62885;51.374;6.170;2023-05-24T08:52:06;10.20;;;2.80;;
74371;SDS011;62885;51.374;6.170;2023-05-24T08:54:33;8.98;;;2.70;;
74371;SDS011;62885;51.374;6.170;2023-05-24T08:57:00;9.32;;;2.72;;
74371;SDS011;62885;51.374;6.170;2023-05-24T08:59:26;13.50;;;2.75;;
74371;SDS011;62885;51.374;6.170;2023-05-24T09:01:52;10.95;;;3.30;;
74371;SDS011;62885;51.374;6.170;2023-05-24T09:04:19;11.70;;;3.20;;
74371;SDS011;62885;51.374;6.170;2023-05-24T09:06:45;15.70;;;3.70;;
74371;SDS011;62885;51.374;6.170;2023-05-24T09:09:11;13.25;;;3.35;;
74371;SDS011;62885;51.374;6.170;2023-05-24T09:11:42;11.43;;;2.83;;
74371;SDS011;62885;51.374;6.170;2023-05-24T09:14:11;11.10;;;2.85;;
74371;SDS011;62885;51.374;6.170;2023-05-24T09:16:37;12.43;;;3.33;;
74371;SDS011;62885;51.374;6.170;2023-05-24T09:19:03;9.43;;;2.22;;
74371;SDS011;62885;51.374;6.170;2023-05-24T09:21:28;9.50;;;2.45;;
74371;SDS011;62885;51.374;6.170;2023-05-24T09:23:54;8.15;;;2.25;;
74371;SDS011;62885;51.374;6.170;2023-05-24T09:26:19;8.95;;;2.80;;
74371;SDS011;62885;51.374;6.170;2023-05-24T09:28:45;8.93;;;2.95;;
74371;SDS011;62885;51.374;6.170;2023-05-24T09:31:11;10.38;;;2.63;;
74371;SDS011;62885;51.374;6.170;2023-05-24T09:33:37;12.73;;;2.60;;
74371;SDS011;62885;51.374;6.170;2023-05-24T09:36:04;12.52;;;2.72;;
74371;SDS011;62885;51.374;6.170;2023-05-24T09:38:31;7.95;;;1.95;;
74371;SDS011;62885;51.374;6.170;2023-05-24T09:43:25;11.63;;;2.65;;
74371;SDS011;62885;51.374;6.170;2023-05-24T09:45:50;9.23;;;2.30;;
74371;SDS011;62885;51.374;6.170;2023-05-24T09:48:18;11.80;;;3.38;;
74371;SDS011;62885;51.374;6.170;2023-05-24T09:50:46;9.95;;;2.80;;
74371;SDS011;62885;51.374;6.170;2023-05-24T09:53:23;11.90;;;2.80;;
74371;SDS011;62885;51.374;6.170;2023-05-24T09:55:48;10.82;;;3.70;;
74371;SDS011;62885;51.374;6.170;2023-05-24T09:58:14;7.43;;;2.35;;
74371;SDS011;62885;51.374;6.170;2023-05-24T10:00:41;8.80;;;2.42;;
74371;SDS011;62885;51.374;6.170;2023-05-24T10:03:07;9.35;;;3.00;;
74371;SDS011;62885;51.374;6.170;2023-05-24T10:05:35;11.52;;;2.97;;
74371;SDS011;62885;51.374;6.170;2023-05-24T10:08:01;9.35;;;2.95;;
74371;SDS011;62885;51.374;6.170;2023-05-24T10:10:29;7.35;;;2.25;;
74371;SDS011;62885;51.374;6.170;2023-05-24T10:12:57;11.32;;;2.60;;
74371;SDS011;62885;51.374;6.170;2023-05-24T10:15:23;6.75;;;2.20;;
74371;SDS011;62885;51.374;6.170;2023-05-24T10:17:51;10.80;;;2.70;;
74371;SDS011;62885;51.374;6.170;2023-05-24T10:20:17;11.35;;;2.28;;
74371;SDS011;62885;51.374;6.170;2023-05-24T10:22:43;7.55;;;2.45;;
74371;SDS011;62885;51.374;6.170;2023-05-24T10:25:13;8.90;;;2.60;;
74371;SDS011;62885;51.374;6.170;2023-05-24T10:27:49;17.70;;;8.15;;
74371;SDS011;62885;51.374;6.170;2023-05-24T10:32:56;9.25;;;2.20;;
74371;SDS011;62885;51.374;6.170;2023-05-24T10:35:23;11.75;;;2.42;;
74371;SDS011;62885;51.374;6.170;2023-05-24T10:37:50;8.95;;;2.38;;
74371;SDS011;62885;51.374;6.170;2023-05-24T10:40:17;13.63;;;3.15;;
74371;SDS011;62885;51.374;6.170;2023-05-24T10:42:44;10.18;;;2.30;;
74371;SDS011;62885;51.374;6.170;2023-05-24T10:47:48;10.77;;;2.42;;
74371;SDS011;62885;51.374;6.170;2023-05-24T10:50:17;10.18;;;2.75;;
74371;SDS011;62885;51.374;6.170;2023-05-24T10:55:09;6.03;;;2.38;;
74371;SDS011;62885;51.374;6.170;2023-05-24T10:57:36;8.38;;;2.70;;
74371;SDS011;62885;51.374;6.170;2023-05-24T11:03:07;11.07;;;2.40;;
74371;SDS011;62885;51.374;6.170;2023-05-24T11:08:13;7.88;;;2.10;;
74371;SDS011;62885;51.374;6.170;2023-05-24T11:10:38;9.48;;;2.85;;
74371;SDS011;62885;51.374;6.170;2023-05-24T11:13:08;10.48;;;2.55;;
74371;SDS011;62885;51.374;6.170;2023-05-24T11:15:34;5.53;;;2.05;;
74371;SDS011;62885;51.374;6.170;2023-05-24T11:20:38;6.70;;;2.08;;
74371;SDS011;62885;51.374;6.170;2023-05-24T11:23:07;7.45;;;2.13;;
74371;SDS011;62885;51.374;6.170;2023-05-24T11:25:34;7.13;;;2.10;;
74371;SDS011;62885;51.374;6.170;2023-05-24T11:28:05;8.68;;;2.30;;
74371;SDS011;62885;51.374;6.170;2023-05-24T11:30:32;8.93;;;2.72;;
74371;SDS011;62885;51.374;6.170;2023-05-24T11:32:57;14.43;;;3.13;;
74371;SDS011;62885;51.374;6.170;2023-05-24T11:35:25;7.13;;;2.20;;
74371;SDS011;62885;51.374;6.170;2023-05-24T11:37:52;11.40;;;3.05;;
74371;SDS011;62885;51.374;6.170;2023-05-24T11:40:18;8.75;;;2.20;;
74371;SDS011;62885;51.374;6.170;2023-05-24T11:42:44;6.97;;;2.30;;
74371;SDS011;62885;51.374;6.170;2023-05-24T11:45:11;6.40;;;2.22;;
74371;SDS011;62885;51.374;6.170;2023-05-24T11:47:38;6.80;;;3.08;;
74371;SDS011;62885;51.374;6.170;2023-05-24T11:50:04;9.43;;;2.28;;
74371;SDS011;62885;51.374;6.170;2023-05-24T11:52:31;13.88;;;2.55;;
74371;SDS011;62885;51.374;6.170;2023-05-24T11:54:56;9.45;;;2.72;;
74371;SDS011;62885;51.374;6.170;2023-05-24T11:57:37;7.82;;;2.55;;
74371;SDS011;62885;51.374;6.170;2023-05-24T12:00:04;8.98;;;2.20;;
74371;SDS011;62885;51.374;6.170;2023-05-24T12:02:35;7.80;;;2.30;;
74371;SDS011;62885;51.374;6.170;2023-05-24T12:05:07;6.30;;;2.33;;
74371;SDS011;62885;51.374;6.170;2023-05-24T12:07:38;11.45;;;2.55;;
74371;SDS011;62885;51.374;6.170;2023-05-24T12:10:04;12.13;;;2.45;;
74371;SDS011;62885;51.374;6.170;2023-05-24T12:12:32;8.63;;;2.10;;
74371;SDS011;62885;51.374;6.170;2023-05-24T12:14:58;7.45;;;2.70;;
74371;SDS011;62885;51.374;6.170;2023-05-24T12:17:23;8.93;;;3.33;;
74371;SDS011;62885;51.374;6.170;2023-05-24T12:19:49;9.63;;;2.33;;
74371;SDS011;62885;51.374;6.170;2023-05-24T12:22:17;9.25;;;2.78;;
74371;SDS011;62885;51.374;6.170;2023-05-24T12:24:42;10.00;;;2.28;;
74371;SDS011;62885;51.374;6.170;2023-05-24T12:27:08;7.93;;;2.47;;
74371;SDS011;62885;51.374;6.170;2023-05-24T12:29:36;7.32;;;1.88;;
74371;SDS011;62885;51.374;6.170;2023-05-24T12:32:04;8.88;;;2.45;;
74371;SDS011;62885;51.374;6.170;2023-05-24T12:34:30;8.43;;;2.28;;
74371;SDS011;62885;51.374;6.170;2023-05-24T12:36:56;11.30;;;2.67;;
74371;SDS011;62885;51.374;6.170;2023-05-24T12:39:22;14.07;;;2.85;;
74371;SDS011;62885;51.374;6.170;2023-05-24T12:41:54;10.90;;;2.65;;
74371;SDS011;62885;51.374;6.170;2023-05-24T12:44:22;7.72;;;2.53;;
74371;SDS011;62885;51.374;6.170;2023-05-24T12:46:49;8.73;;;2.50;;
74371;SDS011;62885;51.374;6.170;2023-05-24T12:49:15;8.02;;;2.35;;
74371;SDS011;62885;51.374;6.170;2023-05-24T12:51:40;11.40;;;2.63;;
74371;SDS011;62885;51.374;6.170;2023-05-24T12:54:06;10.50;;;2.72;;
74371;SDS011;62885;51.374;6.170;2023-05-24T12:56:31;8.73;;;2.35;;
74371;SDS011;62885;51.374;6.170;2023-05-24T12:58:56;11.30;;;2.75;;
74371;SDS011;62885;51.374;6.170;2023-05-24T13:01:22;9.65;;;2.50;;
74371;SDS011;62885;51.374;6.170;2023-05-24T13:03:49;9.93;;;2.20;;
74371;SDS011;62885;51.374;6.170;2023-05-24T13:06:14;8.32;;;2.00;;
74371;SDS011;62885;51.374;6.170;2023-05-24T13:08:40;11.48;;;2.63;;
74371;SDS011;62885;51.374;6.170;2023-05-24T13:11:06;7.82;;;2.30;;
74371;SDS011;62885;51.374;6.170;2023-05-24T13:13:31;11.68;;;2.30;;
74371;SDS011;62885;51.374;6.170;2023-05-24T13:15:56;8.10;;;2.53;;
74371;SDS011;62885;51.374;6.170;2023-05-24T13:18:22;10.40;;;2.50;;
74371;SDS011;62885;51.374;6.170;2023-05-24T13:20:50;11.70;;;2.45;;
74371;SDS011;62885;51.374;6.170;2023-05-24T13:23:16;10.90;;;2.58;;
74371;SDS011;62885;51.374;6.170;2023-05-24T13:25:41;22.05;;;3.10;;
74371;SDS011;62885;51.374;6.170;2023-05-24T13:28:06;10.57;;;2.47;;
74371;SDS011;62885;51.374;6.170;2023-05-24T13:30:32;9.82;;;2.38;;
74371;SDS011;62885;51.374;6.170;2023-05-24T13:32:57;11.32;;;2.35;;
74371;SDS011;62885;51.374;6.170;2023-05-24T13:35:23;9.05;;;2.50;;
74371;SDS011;62885;51.374;6.170;2023-05-24T13:37:49;6.80;;;2.47;;
74371;SDS011;62885;51.374;6.170;2023-05-24T13:40:16;8.57;;;1.98;;
74371;SDS011;62885;51.374;6.170;2023-05-24T13:42:42;6.85;;;2.30;;
74371;SDS011;62885;51.374;6.170;2023-05-24T13:45:07;8.27;;;2.65;;
74371;SDS011;62885;51.374;6.170;2023-05-24T13:47:33;6.90;;;2.15;;
74371;SDS011;62885;51.374;6.170;2023-05-24T13:49:59;7.95;;;2.20;;
74371;SDS011;62885;51.374;6.170;2023-05-24T13:52:24;7.03;;;2.33;;
74371;SDS011;62885;51.374;6.170;2023-05-24T13:54:50;9.40;;;2.65;;
74371;SDS011;62885;51.374;6.170;2023-05-24T13:57:16;7.72;;;2.30;;
74371;SDS011;62885;51.374;6.170;2023-05-24T13:59:41;8.82;;;2.80;;
74371;SDS011;62885;51.374;6.170;2023-05-24T14:02:07;7.75;;;2.80;;
74371;SDS011;62885;51.374;6.170;2023-05-24T14:04:33;7.93;;;2.30;;
74371;SDS011;62885;51.374;6.170;2023-05-24T14:06:58;8.13;;;2.75;;
74371;SDS011;62885;51.374;6.170;2023-05-24T14:09:23;10.00;;;2.25;;
74371;SDS011;62885;51.374;6.170;2023-05-24T14:11:50;6.85;;;2.53;;
74371;SDS011;62885;51.374;6.170;2023-05-24T14:14:16;9.52;;;2.42;;
74371;SDS011;62885;51.374;6.170;2023-05-24T14:16:41;9.32;;;2.80;;
74371;SDS011;62885;51.374;6.170;2023-05-24T14:19:07;12.00;;;2.65;;
74371;SDS011;62885;51.374;6.170;2023-05-24T14:21:32;9.77;;;2.80;;
74371;SDS011;62885;51.374;6.170;2023-05-24T14:23:57;7.18;;;2.67;;
74371;SDS011;62885;51.374;6.170;2023-05-24T14:26:23;7.15;;;2.50;;
74371;SDS011;62885;51.374;6.170;2023-05-24T14:28:48;7.57;;;2.67;;
74371;SDS011;62885;51.374;6.170;2023-05-24T14:31:13;7.85;;;2.20;;
74371;SDS011;62885;51.374;6.170;2023-05-24T14:33:39;11.13;;;2.58;;
74371;SDS011;62885;51.374;6.170;2023-05-24T14:36:04;5.93;;;2.03;;
74371;SDS011;62885;51.374;6.170;2023-05-24T14:38:31;7.45;;;2.65;;
74371;SDS011;62885;51.374;6.170;2023-05-24T14:40:56;7.00;;;2.13;;
74371;SDS011;62885;51.374;6.170;2023-05-24T14:43:25;8.70;;;2.65;;
74371;SDS011;62885;51.374;6.170;2023-05-24T14:45:51;8.30;;;2.35;;
74371;SDS011;62885;51.374;6.170;2023-05-24T14:48:16;12.07;;;3.40;;
74371;SDS011;62885;51.374;6.170;2023-05-24T14:50:41;9.32;;;2.60;;
74371;SDS011;62885;51.374;6.170;2023-05-24T14:53:07;6.95;;;2.38;;
74371;SDS011;62885;51.374;6.170;2023-05-24T14:55:35;6.97;;;2.45;;
74371;SDS011;62885;51.374;6.170;2023-05-24T14:58:02;6.80;;;2.22;;
74371;SDS011;62885;51.374;6.170;2023-05-24T15:00:27;9.32;;;2.47;;
74371;SDS011;62885;51.374;6.170;2023-05-24T15:02:53;7.97;;;2.25;;
74371;SDS011;62885;51.374;6.170;2023-05-24T15:05:18;7.68;;;2.78;;
74371;SDS011;62885;51.374;6.170;2023-05-24T15:07:44;10.63;;;3.40;;
74371;SDS011;62885;51.374;6.170;2023-05-24T15:10:09;9.70;;;2.50;;
74371;SDS011;62885;51.374;6.170;2023-05-24T15:12:35;8.68;;;2.13;;
74371;SDS011;62885;51.374;6.170;2023-05-24T15:15:01;7.80;;;2.45;;